Time;durP1;ratioP1;P1;durP2;ratioP2;P2;SDS_P1;SDS_P2;PMS_P1;PMS_P2;Temp;Humidity;BMP_temperature;BMP_pressure;BME280_temperature;BME280_humidity;BME280_pressure;Samples;Min_cycle;Max_cycle;Signal;HPM_P1;HPM_P2
2021/04/29 00:01:26;;;;;;;8.57;6.75;;;13.70;99.90;;;;;;5052205;28;20207;-72
2021/04/29 00:03:53;;;;;;;10.15;7.78;;;13.70;99.90;;;;;;5051585;28;20820;-71
2021/04/29 00:06:19;;;;;;;10.70;7.30;;;13.70;99.90;;;;;;5051825;28;20204;-70
2021/04/29 00:08:45;;;;;;;11.68;8.27;;;13.50;99.90;;;;;;5052301;28;20230;-72
2021/04/29 00:11:12;;;;;;;10.98;7.70;;;13.40;99.90;;;;;;5052194;28;20686;-71
2021/04/29 00:13:39;;;;;;;14.93;8.35;;;13.40;99.90;;;;;;5051772;28;20230;-71
2021/04/29 00:16:06;;;;;;;11.23;7.35;;;13.30;99.90;;;;;;5051838;28;20207;-71
2021/04/29 00:18:33;;;;;;;12.82;8.70;;;13.30;99.90;;;;;;5051949;28;20807;-71
2021/04/29 00:20:59;;;;;;;13.75;8.70;;;13.20;99.90;;;;;;5055088;28;20211;-72
2021/04/29 00:23:27;;;;;;;11.85;8.30;;;13.20;99.90;;;;;;5055396;28;20255;-72
2021/04/29 00:25:54;;;;;;;19.00;9.88;;;13.10;99.90;;;;;;5055542;28;20258;-71
2021/04/29 00:28:20;;;;;;;12.45;8.73;;;13.00;99.90;;;;;;5055808;28;20302;-71
2021/04/29 00:30:48;;;;;;;13.63;9.35;;;13.00;99.90;;;;;;5055638;28;20215;-70
2021/04/29 00:33:14;;;;;;;14.13;9.35;;;13.00;99.90;;;;;;5055029;28;20254;-70
2021/04/29 00:35:41;;;;;;;11.85;8.57;;;12.80;99.90;;;;;;5055393;28;20294;-73
2021/04/29 00:38:07;;;;;;;12.65;9.77;;;13.00;99.90;;;;;;5055633;28;20305;-71
2021/04/29 00:40:34;;;;;;;14.90;9.73;;;13.00;99.90;;;;;;5055296;28;20294;-71
2021/04/29 00:43:00;;;;;;;17.00;9.80;;;12.90;99.90;;;;;;5055116;28;20223;-70
2021/04/29 00:45:27;;;;;;;13.10;9.00;;;13.10;99.90;;;;;;5054898;28;20207;-71
2021/04/29 00:47:54;;;;;;;12.50;8.60;;;13.10;99.90;;;;;;5055610;28;20195;-72
2021/04/29 00:50:23;;;;;;;16.48;9.98;;;13.20;99.90;;;;;;5055608;28;20230;-73
2021/04/29 00:52:49;;;;;;;13.55;8.85;;;13.10;99.90;;;;;;5054909;28;20310;-74
2021/04/29 00:55:16;;;;;;;13.73;9.60;;;13.10;99.90;;;;;;5055031;28;20298;-72
2021/04/29 00:57:43;;;;;;;13.43;9.23;;;13.00;99.90;;;;;;5054900;28;20319;-73
2021/04/29 01:00:11;;;;;;;15.15;10.05;;;12.90;99.90;;;;;;5055089;28;20301;-73
2021/04/29 01:02:41;;;;;;;14.65;9.50;;;12.90;99.90;;;;;;5054826;28;20210;-74
2021/04/29 01:05:13;;;;;;;14.18;9.85;;;12.80;99.90;;;;;;5054949;28;20290;-73
2021/04/29 01:07:43;;;;;;;14.93;9.75;;;12.80;99.90;;;;;;5054755;28;20202;-73
2021/04/29 01:10:13;;;;;;;12.40;9.35;;;12.80;99.90;;;;;;5055030;28;20235;-72
2021/04/29 01:12:45;;;;;;;12.52;8.70;;;12.80;99.90;;;;;;5054559;28;20231;-75
2021/04/29 01:15:12;;;;;;;11.52;8.13;;;12.90;99.90;;;;;;5054823;28;20217;-75
2021/04/29 01:17:42;;;;;;;12.30;8.98;;;13.00;99.90;;;;;;5054585;28;20219;-74
2021/04/29 01:20:14;;;;;;;11.10;7.90;;;13.00;99.90;;;;;;5054771;28;20210;-74
2021/04/29 01:22:47;;;;;;;10.88;8.40;;;13.10;99.90;;;;;;5054547;28;20223;-76
2021/04/29 01:25:16;;;;;;;12.23;8.65;;;13.20;99.90;;;;;;5054386;28;20249;-73
2021/04/29 01:27:44;;;;;;;10.95;7.72;;;13.20;99.90;;;;;;5054527;28;20200;-75
2021/04/29 01:30:12;;;;;;;10.98;7.53;;;13.30;99.90;;;;;;5054653;28;20294;-75
2021/04/29 01:32:39;;;;;;;11.32;7.60;;;13.40;99.90;;;;;;5053392;28;20239;-75
2021/04/29 01:35:08;;;;;;;8.82;6.85;;;13.40;99.90;;;;;;5054240;28;20301;-75
2021/04/29 01:37:35;;;;;;;7.90;6.43;;;13.40;99.90;;;;;;5053920;28;20742;-75
2021/04/29 01:40:04;;;;;;;8.70;7.55;;;13.40;99.90;;;;;;5054407;28;20215;-75
2021/04/29 01:42:34;;;;;;;9.50;6.80;;;13.40;99.90;;;;;;5054198;28;20238;-76
2021/04/29 01:45:02;;;;;;;10.50;6.35;;;13.40;99.90;;;;;;5053925;28;20214;-75
2021/04/29 01:47:31;;;;;;;7.63;5.50;;;13.40;99.90;;;;;;5053958;28;20740;-75
2021/04/29 01:49:58;;;;;;;8.20;5.70;;;13.50;99.90;;;;;;5054180;28;20203;-75
2021/04/29 01:52:25;;;;;;;6.78;4.20;;;13.50;99.90;;;;;;5053699;28;20294;-76
2021/04/29 01:54:52;;;;;;;6.45;3.92;;;13.60;99.90;;;;;;5054033;28;20294;-76
2021/04/29 01:57:18;;;;;;;7.22;4.50;;;13.60;99.90;;;;;;5053804;28;20310;-76
2021/04/29 01:59:45;;;;;;;4.30;3.90;;;13.70;99.90;;;;;;5054246;28;20215;-76
2021/04/29 02:02:12;;;;;;;4.57;3.97;;;13.70;99.90;;;;;;5053805;28;20349;-73
2021/04/29 02:04:38;;;;;;;4.78;3.88;;;13.70;99.90;;;;;;5053333;28;20312;-75
2021/04/29 02:07:04;;;;;;;3.58;2.80;;;13.80;99.90;;;;;;5053450;28;20231;-75
2021/04/29 02:09:31;;;;;;;3.00;2.70;;;13.80;99.90;;;;;;5054018;28;20602;-75
2021/04/29 02:11:59;;;;;;;2.65;2.42;;;13.80;99.90;;;;;;5053773;28;20311;-76
2021/04/29 02:14:32;;;;;;;2.60;2.40;;;13.80;99.90;;;;;;5053750;28;20373;-74
2021/04/29 02:17:03;;;;;;;3.72;2.40;;;13.80;99.90;;;;;;5053442;28;20356;-73
2021/04/29 02:19:32;;;;;;;2.40;2.20;;;13.80;99.90;;;;;;5053900;28;20219;-73
2021/04/29 02:21:59;;;;;;;2.40;1.85;;;13.80;99.90;;;;;;5053923;28;20253;-75
2021/04/29 02:24:27;;;;;;;3.40;1.80;;;13.70;99.90;;;;;;5053726;28;20223;-74
2021/04/29 02:26:54;;;;;;;2.00;1.77;;;13.70;99.90;;;;;;5053364;28;20200;-72
2021/04/29 02:29:20;;;;;;;2.38;1.85;;;13.80;99.90;;;;;;5053602;28;20207;-72
2021/04/29 02:31:48;;;;;;;2.45;2.00;;;13.70;99.90;;;;;;5053180;28;20294;-72
2021/04/29 02:34:15;;;;;;;2.47;1.65;;;13.70;99.90;;;;;;5053116;28;20224;-72
2021/04/29 02:36:42;;;;;;;1.80;1.70;;;13.70;99.90;;;;;;5053074;28;20210;-72
2021/04/29 02:39:09;;;;;;;1.60;1.45;;;13.70;99.90;;;;;;5053381;28;20210;-72
2021/04/29 02:41:36;;;;;;;1.65;1.55;;;13.70;99.90;;;;;;5053308;28;20554;-74
2021/04/29 02:44:03;;;;;;;1.50;1.40;;;13.70;99.90;;;;;;5059219;28;20315;-77
2021/04/29 02:46:30;;;;;;;1.55;1.45;;;13.70;99.90;;;;;;5054081;28;20208;-70
2021/04/29 02:48:56;;;;;;;1.55;1.38;;;13.70;99.90;;;;;;5054220;28;20257;-71
2021/04/29 02:51:23;;;;;;;2.20;1.60;;;13.60;99.90;;;;;;5054013;28;20295;-71
2021/04/29 02:53:50;;;;;;;1.67;1.58;;;13.60;99.90;;;;;;5054464;28;20292;-71
2021/04/29 02:56:17;;;;;;;1.60;1.30;;;13.60;99.90;;;;;;5053734;28;20737;-71
2021/04/29 02:58:44;;;;;;;1.45;1.35;;;13.60;99.90;;;;;;5054467;28;20230;-70
2021/04/29 03:01:12;;;;;;;2.25;1.73;;;13.60;99.90;;;;;;5054124;28;20294;-70
2021/04/29 03:03:39;;;;;;;3.67;2.50;;;13.70;99.90;;;;;;5054054;28;20238;-70
2021/04/29 03:06:06;;;;;;;2.13;1.92;;;13.70;99.90;;;;;;5053592;28;20579;-71
2021/04/29 03:08:32;;;;;;;1.80;1.40;;;13.60;99.90;;;;;;5053997;28;20287;-70
2021/04/29 03:11:00;;;;;;;1.83;1.40;;;13.50;99.90;;;;;;5054047;28;20716;-70
2021/04/29 03:13:26;;;;;;;1.30;1.20;;;13.30;99.90;;;;;;5053749;28;20317;-70
2021/04/29 03:15:53;;;;;;;1.45;1.35;;;13.30;99.90;;;;;;5053605;28;20203;-70
2021/04/29 03:18:19;;;;;;;1.48;1.35;;;13.20;99.90;;;;;;5053534;28;20304;-70
2021/04/29 03:20:45;;;;;;;1.70;1.20;;;13.20;99.90;;;;;;5053878;28;20646;-70
2021/04/29 03:23:12;;;;;;;1.30;1.20;;;13.20;99.90;;;;;;5053781;28;20219;-71
2021/04/29 03:25:38;;;;;;;1.27;1.17;;;13.20;99.90;;;;;;5054093;28;20639;-70
2021/04/29 03:28:05;;;;;;;1.20;1.10;;;13.30;99.90;;;;;;5053387;28;20290;-70
2021/04/29 03:30:32;;;;;;;1.60;1.40;;;13.20;99.90;;;;;;5053869;28;20211;-71
2021/04/29 03:32:59;;;;;;;1.92;0.98;;;13.30;99.90;;;;;;5053588;28;20641;-71
2021/04/29 03:35:25;;;;;;;1.70;1.60;;;13.30;99.90;;;;;;5053787;28;20207;-71
2021/04/29 03:37:51;;;;;;;2.85;2.20;;;13.30;99.90;;;;;;5054043;28;20229;-71
2021/04/29 03:40:18;;;;;;;1.52;1.42;;;13.30;99.90;;;;;;5053649;28;20252;-71
2021/04/29 03:42:44;;;;;;;1.00;0.80;;;13.30;99.90;;;;;;5053143;28;20720;-70
2021/04/29 03:45:12;;;;;;;2.90;2.00;;;13.20;99.90;;;;;;5053596;28;20299;-70
2021/04/29 03:47:38;;;;;;;1.40;1.30;;;13.20;99.90;;;;;;5053474;28;20203;-70
2021/04/29 03:50:06;;;;;;;1.95;1.20;;;13.20;99.90;;;;;;5053997;28;20561;-70
2021/04/29 03:52:33;;;;;;;1.08;1.08;;;13.20;99.90;;;;;;5053873;28;20290;-70
2021/04/29 03:55:00;;;;;;;0.70;0.70;;;13.10;99.90;;;;;;5055551;28;20214;-70
2021/04/29 03:57:26;;;;;;;1.80;0.90;;;13.10;99.90;;;;;;5056841;28;20259;-71
2021/04/29 03:59:52;;;;;;;1.15;0.98;;;13.10;99.90;;;;;;5057383;28;20290;-71
2021/04/29 04:02:20;;;;;;;1.05;0.93;;;13.10;99.90;;;;;;5057409;28;20290;-71
2021/04/29 04:04:46;;;;;;;1.02;0.93;;;13.10;99.90;;;;;;5057670;28;20203;-70
2021/04/29 04:07:12;;;;;;;1.00;1.00;;;13.00;99.90;;;;;;5057300;28;20199;-71
2021/04/29 04:09:39;;;;;;;1.20;0.80;;;13.00;99.90;;;;;;5057489;28;20353;-71
2021/04/29 04:12:06;;;;;;;1.27;0.90;;;13.00;99.90;;;;;;5057092;28;20231;-70
2021/04/29 04:14:32;;;;;;;0.90;0.80;;;13.00;99.90;;;;;;5057137;28;20569;-70
2021/04/29 04:16:59;;;;;;;1.20;0.82;;;12.90;99.90;;;;;;5056929;28;20218;-71
2021/04/29 04:19:26;;;;;;;1.02;0.93;;;12.90;99.90;;;;;;5057229;28;20605;-71
2021/04/29 04:21:52;;;;;;;1.05;0.80;;;12.90;99.90;;;;;;5055988;28;20290;-71
2021/04/29 04:24:19;;;;;;;1.70;1.10;;;12.90;99.90;;;;;;5057213;28;20223;-71
2021/04/29 04:26:45;;;;;;;1.30;1.20;;;13.00;99.90;;;;;;5056659;28;20203;-71
2021/04/29 04:29:12;;;;;;;1.95;1.30;;;12.90;99.90;;;;;;5056877;28;20231;-71
2021/04/29 04:31:38;;;;;;;1.15;1.05;;;12.80;99.90;;;;;;5057084;28;20223;-71
2021/04/29 04:34:04;;;;;;;3.28;1.17;;;12.90;99.90;;;;;;5057156;28;20227;-70
2021/04/29 04:36:31;;;;;;;1.40;1.30;;;12.90;99.90;;;;;;5056429;28;20635;-70
2021/04/29 04:38:58;;;;;;;1.20;1.10;;;12.80;99.90;;;;;;5056939;28;20318;-70
2021/04/29 04:41:24;;;;;;;1.20;1.10;;;12.80;99.90;;;;;;5056577;28;20294;-70
2021/04/29 04:43:51;;;;;;;1.50;1.38;;;12.80;99.90;;;;;;5056702;28;20223;-70
2021/04/29 04:46:17;;;;;;;1.65;1.35;;;12.80;99.90;;;;;;5056189;28;20199;-71
2021/04/29 04:48:44;;;;;;;1.52;1.30;;;12.70;99.90;;;;;;5056682;28;20231;-71
2021/04/29 04:51:10;;;;;;;1.30;1.20;;;12.80;99.90;;;;;;5056694;28;20203;-71
2021/04/29 04:53:37;;;;;;;1.40;0.95;;;12.80;99.90;;;;;;5056106;28;20318;-71
2021/04/29 04:56:04;;;;;;;1.40;1.08;;;12.90;99.90;;;;;;5055805;28;20231;-71
2021/04/29 04:58:30;;;;;;;1.70;1.30;;;13.00;99.90;;;;;;5056093;28;20709;-71
2021/04/29 05:00:57;;;;;;;1.30;1.20;;;13.00;99.90;;;;;;5056397;28;20564;-71
2021/04/29 05:03:24;;;;;;;1.65;1.20;;;13.10;99.90;;;;;;5056260;28;20226;-70
2021/04/29 05:05:50;;;;;;;1.85;1.20;;;13.10;99.90;;;;;;5054796;28;20199;-71
2021/04/29 05:08:16;;;;;;;1.55;1.40;;;13.10;99.90;;;;;;5055711;28;20246;-70
2021/04/29 05:10:44;;;;;;;1.40;1.30;;;13.20;99.90;;;;;;5056282;28;20253;-71
2021/04/29 05:13:10;;;;;;;2.03;1.70;;;13.20;99.90;;;;;;5055858;28;20227;-71
2021/04/29 05:15:37;;;;;;;3.03;2.00;;;13.10;99.90;;;;;;5055880;28;20203;-70
2021/04/29 05:18:04;;;;;;;3.88;2.00;;;13.10;99.90;;;;;;5056059;28;20360;-70
2021/04/29 05:20:31;;;;;;;5.70;2.13;;;13.10;99.90;;;;;;5056143;28;20286;-70
2021/04/29 05:22:58;;;;;;;1.70;1.60;;;13.20;99.90;;;;;;5055772;28;20224;-71
2021/04/29 05:25:24;;;;;;;2.45;2.25;;;13.20;99.90;;;;;;5055516;28;20200;-71
2021/04/29 05:27:52;;;;;;;2.38;2.10;;;13.30;99.90;;;;;;5055637;28;20280;-70
2021/04/29 05:30:20;;;;;;;3.28;2.28;;;13.30;99.90;;;;;;5055769;28;20336;-70
2021/04/29 05:32:47;;;;;;;2.38;2.10;;;13.30;99.90;;;;;;5055215;28;20329;-71
2021/04/29 05:35:14;;;;;;;2.50;2.30;;;13.30;99.90;;;;;;5055196;28;20217;-70
2021/04/29 05:37:41;;;;;;;4.10;2.15;;;13.30;99.90;;;;;;5054878;28;20318;-70
2021/04/29 05:40:09;;;;;;;4.38;3.80;;;13.30;99.90;;;;;;5055571;28;20209;-70
2021/04/29 05:42:36;;;;;;;3.25;2.75;;;13.30;99.90;;;;;;5055507;28;20242;-70
2021/04/29 05:45:04;;;;;;;2.80;2.60;;;13.30;99.90;;;;;;5055003;28;20250;-70
2021/04/29 05:47:31;;;;;;;4.57;3.20;;;13.30;99.90;;;;;;5055531;28;20203;-70
2021/04/29 05:49:57;;;;;;;5.18;3.33;;;13.20;99.90;;;;;;5055409;28;20310;-71
2021/04/29 05:52:24;;;;;;;6.15;2.75;;;13.20;99.90;;;;;;5055203;28;20199;-70
2021/04/29 05:54:51;;;;;;;3.20;2.90;;;13.10;99.90;;;;;;5055231;28;20209;-70
2021/04/29 05:57:17;;;;;;;5.05;3.78;;;13.10;99.90;;;;;;5055082;28;20265;-70
2021/04/29 05:59:43;;;;;;;2.95;2.70;;;13.10;99.90;;;;;;5055281;28;20210;-71
2021/04/29 06:02:11;;;;;;;5.60;3.58;;;13.10;99.90;;;;;;5055372;28;20230;-70
2021/04/29 06:04:37;;;;;;;3.00;2.70;;;13.20;99.90;;;;;;5054985;28;20227;-71
2021/04/29 06:07:03;;;;;;;6.00;3.10;;;13.20;99.90;;;;;;5054761;28;20262;-71
2021/04/29 06:09:30;;;;;;;3.30;3.00;;;13.30;99.90;;;;;;5055066;28;20238;-71
2021/04/29 06:11:56;;;;;;;3.30;3.00;;;13.30;99.90;;;;;;5055091;28;20623;-71
2021/04/29 06:14:22;;;;;;;3.30;2.70;;;13.30;99.90;;;;;;5055322;28;20322;-71
2021/04/29 06:16:48;;;;;;;3.05;2.75;;;13.50;99.90;;;;;;5054642;28;20235;-71
2021/04/29 06:19:16;;;;;;;3.92;2.75;;;13.50;99.90;;;;;;5054455;28;20229;-70
2021/04/29 06:21:43;;;;;;;3.55;3.03;;;13.60;99.90;;;;;;5055088;28;20298;-71
2021/04/29 06:24:10;;;;;;;3.20;2.90;;;13.60;99.90;;;;;;5054912;28;20253;-71
2021/04/29 06:26:36;;;;;;;3.58;3.28;;;13.70;99.90;;;;;;5054128;28;20212;-71
2021/04/29 06:29:03;;;;;;;4.65;3.63;;;13.90;99.90;;;;;;5054895;28;20302;-70
2021/04/29 06:31:29;;;;;;;5.38;3.25;;;13.90;99.90;;;;;;5054225;28;20204;-71
2021/04/29 06:33:56;;;;;;;4.32;2.75;;;14.10;99.90;;;;;;5054821;28;20228;-71
2021/04/29 06:36:23;;;;;;;3.80;3.40;;;14.10;99.90;;;;;;5054181;28;20626;-70
2021/04/29 06:38:50;;;;;;;3.72;2.97;;;14.10;99.90;;;;;;5054525;28;20267;-71
2021/04/29 06:41:16;;;;;;;6.10;3.80;;;14.10;99.90;;;;;;5054549;28;20218;-71
2021/04/29 06:43:42;;;;;;;4.28;3.55;;;14.10;99.90;;;;;;5054227;28;20310;-71
2021/04/29 06:46:10;;;;;;;5.53;3.75;;;14.10;99.90;;;;;;5053993;28;20715;-71
2021/04/29 06:48:37;;;;;;;4.18;3.72;;;14.20;99.90;;;;;;5054203;28;20562;-71
2021/04/29 06:51:04;;;;;;;5.30;3.58;;;14.30;99.90;;;;;;5054153;28;20531;-71
2021/04/29 06:53:31;;;;;;;5.55;4.32;;;14.30;99.90;;;;;;5054274;28;20310;-71
2021/04/29 06:55:58;;;;;;;5.40;4.15;;;14.40;99.90;;;;;;5054304;28;20289;-70
2021/04/29 06:58:25;;;;;;;5.50;4.82;;;14.50;99.90;;;;;;5054268;28;20366;-70
2021/04/29 07:00:51;;;;;;;6.53;4.38;;;14.60;99.90;;;;;;5053969;28;20206;-71
2021/04/29 07:03:17;;;;;;;6.60;4.63;;;14.70;99.90;;;;;;5054132;28;20714;-70
2021/04/29 07:05:44;;;;;;;4.30;3.90;;;14.80;99.90;;;;;;5053611;28;20730;-70
2021/04/29 07:08:10;;;;;;;5.22;4.50;;;15.00;99.90;;;;;;5054081;28;20202;-71
2021/04/29 07:10:37;;;;;;;5.85;4.80;;;15.00;99.90;;;;;;5053554;28;20291;-73
2021/04/29 07:13:03;;;;;;;6.10;4.55;;;15.10;99.90;;;;;;5034330;28;20248;-71
2021/04/29 07:15:30;;;;;;;6.53;4.43;;;15.10;99.90;;;;;;5032798;28;20205;-71
2021/04/29 07:17:58;;;;;;;8.00;5.35;;;15.20;99.90;;;;;;5032539;28;20237;-74
2021/04/29 07:20:24;;;;;;;5.47;4.82;;;15.20;99.90;;;;;;5032527;28;20548;-75
2021/04/29 07:22:51;;;;;;;5.90;4.47;;;15.10;99.90;;;;;;5032614;28;20316;-75
2021/04/29 07:25:17;;;;;;;6.80;4.72;;;15.00;99.90;;;;;;5032411;28;20265;-75
2021/04/29 07:27:45;;;;;;;5.40;4.60;;;15.00;99.90;;;;;;5032048;28;20219;-75
2021/04/29 07:30:12;;;;;;;5.10;4.57;;;15.10;99.90;;;;;;5031609;28;20210;-74
2021/04/29 07:32:38;;;;;;;7.28;5.15;;;15.20;99.90;;;;;;5032138;28;20209;-75
2021/04/29 07:35:05;;;;;;;6.30;4.95;;;15.40;99.90;;;;;;5032179;28;20261;-75
2021/04/29 07:37:32;;;;;;;6.15;4.70;;;15.50;99.90;;;;;;5032186;28;20225;-75
2021/04/29 07:39:58;;;;;;;6.75;4.63;;;15.50;99.90;;;;;;5032435;28;20727;-75
2021/04/29 07:42:24;;;;;;;7.97;5.20;;;15.60;99.90;;;;;;5032448;28;20238;-75
2021/04/29 07:44:51;;;;;;;5.95;4.50;;;15.70;99.90;;;;;;5032159;28;20228;-74
2021/04/29 07:47:18;;;;;;;5.90;4.60;;;15.80;99.90;;;;;;5031697;28;20203;-74
2021/04/29 07:49:44;;;;;;;5.05;4.43;;;15.90;99.90;;;;;;5032158;28;20301;-75
2021/04/29 07:52:10;;;;;;;5.00;4.40;;;15.80;99.90;;;;;;5032484;28;20321;-71
2021/04/29 07:54:37;;;;;;;5.32;4.80;;;15.90;99.90;;;;;;5031725;28;20309;-71
2021/04/29 07:57:03;;;;;;;7.60;5.55;;;16.00;99.90;;;;;;5031611;28;20259;-75
2021/04/29 07:59:30;;;;;;;6.60;5.13;;;16.20;99.90;;;;;;5032558;28;20622;-76
2021/04/29 08:01:57;;;;;;;7.70;5.18;;;16.40;99.90;;;;;;5032072;28;20261;-76
2021/04/29 08:04:24;;;;;;;7.72;5.05;;;16.50;99.90;;;;;;5031831;28;20315;-76
2021/04/29 08:06:50;;;;;;;8.13;5.38;;;16.70;99.50;;;;;;5032643;28;20295;-75
2021/04/29 08:09:17;;;;;;;6.25;5.10;;;17.00;98.50;;;;;;5033099;28;20210;-76
2021/04/29 08:11:43;;;;;;;5.90;5.10;;;18.20;96.40;;;;;;5033340;28;20204;-75
2021/04/29 08:14:09;;;;;;;6.60;4.77;;;19.60;92.00;;;;;;5033459;28;20315;-75
2021/04/29 08:16:36;;;;;;;5.60;5.00;;;20.10;89.80;;;;;;5033275;28;20853;-76
2021/04/29 08:19:03;;;;;;;11.90;6.70;;;20.30;85.00;;;;;;5033437;28;20941;-74
2021/04/29 08:21:30;;;;;;;6.93;5.70;;;20.30;80.30;;;;;;5033448;28;20450;-75
2021/04/29 08:23:57;;;;;;;7.60;5.50;;;20.00;79.70;;;;;;5033483;28;20562;-71
2021/04/29 08:26:24;;;;;;;7.88;6.50;;;19.30;79.40;;;;;;5032930;28;20534;-71
2021/04/29 08:28:50;;;;;;;7.18;6.07;;;18.90;83.10;;;;;;5033034;28;20291;-71
2021/04/29 08:31:17;;;;;;;7.00;5.78;;;18.60;84.20;;;;;;5033186;28;20299;-72
2021/04/29 08:33:44;;;;;;;9.60;7.50;;;18.20;85.90;;;;;;5033130;28;20362;-71
2021/04/29 08:36:11;;;;;;;7.22;6.53;;;18.00;88.90;;;;;;5033232;28;20273;-71
2021/04/29 08:38:38;;;;;;;7.40;6.00;;;17.80;88.60;;;;;;5032945;28;20228;-71
2021/04/29 08:41:04;;;;;;;8.23;6.80;;;17.70;90.30;;;;;;5034417;28;20200;-71
2021/04/29 08:43:31;;;;;;;8.70;6.65;;;17.90;89.50;;;;;;5036459;28;20301;-71
2021/04/29 08:45:57;;;;;;;9.18;6.85;;;18.00;89.60;;;;;;5036200;28;20201;-71
2021/04/29 08:48:25;;;;;;;7.72;6.50;;;18.00;89.40;;;;;;5036710;28;20227;-71
2021/04/29 08:50:52;;;;;;;7.63;6.55;;;18.00;87.80;;;;;;5036741;28;20204;-71
2021/04/29 08:53:20;;;;;;;9.13;7.50;;;18.10;87.90;;;;;;5036388;28;20250;-71
2021/04/29 08:55:46;;;;;;;9.15;7.38;;;18.10;86.20;;;;;;5036101;28;20298;-71
2021/04/29 08:58:13;;;;;;;7.97;6.35;;;17.90;87.20;;;;;;5036402;28;20319;-71
2021/04/29 09:00:40;;;;;;;8.85;6.85;;;17.70;88.40;;;;;;5036189;28;20215;-71
2021/04/29 09:03:06;;;;;;;8.57;6.97;;;17.60;89.70;;;;;;5036176;28;20237;-71
2021/04/29 09:05:34;;;;;;;8.57;6.45;;;17.50;89.70;;;;;;5036643;28;20207;-71
2021/04/29 09:08:01;;;;;;;9.75;7.70;;;17.50;88.50;;;;;;5036099;28;20593;-71
2021/04/29 09:10:31;;;;;;;8.68;7.13;;;17.50;86.80;;;;;;5036124;28;20353;-71
2021/04/29 09:12:58;;;;;;;9.70;7.65;;;17.40;88.00;;;;;;5036181;28;20314;-71
2021/04/29 09:15:27;;;;;;;11.75;7.70;;;17.20;89.20;;;;;;5035951;28;20307;-71
2021/04/29 09:18:08;;;;;;;8.45;6.90;;;17.10;86.70;;;;;;5036234;28;20570;-71
2021/04/29 09:20:35;;;;;;;10.05;7.40;;;16.90;89.10;;;;;;5035873;28;20293;-71
2021/04/29 09:23:04;;;;;;;9.50;7.35;;;16.70;88.90;;;;;;5035657;28;20317;-71
2021/04/29 09:25:32;;;;;;;10.48;7.13;;;16.60;90.00;;;;;;5035964;28;20207;-70
2021/04/29 09:27:59;;;;;;;8.73;6.57;;;16.50;89.20;;;;;;5035648;28;20661;-71
2021/04/29 09:30:26;;;;;;;7.50;6.70;;;16.30;89.40;;;;;;5036056;28;20617;-71
2021/04/29 09:32:57;;;;;;;7.72;6.93;;;16.20;90.40;;;;;;5035302;28;20234;-71
2021/04/29 09:35:24;;;;;;;7.95;7.15;;;16.10;91.20;;;;;;5035555;28;20206;-70
2021/04/29 09:37:50;;;;;;;9.38;7.60;;;16.00;91.80;;;;;;5035681;28;20337;-71
2021/04/29 09:40:22;;;;;;;10.63;8.27;;;15.70;96.30;;;;;;5035586;28;20210;-71
2021/04/29 09:42:50;;;;;;;10.52;7.28;;;15.30;99.90;;;;;;5035552;28;20311;-71
2021/04/29 09:45:19;;;;;;;11.07;8.70;;;15.10;99.90;;;;;;5035245;28;20265;-70
2021/04/29 09:47:56;;;;;;;8.10;6.80;;;14.70;99.90;;;;;;5035344;28;20196;-70
2021/04/29 09:50:23;;;;;;;8.43;6.68;;;14.40;99.90;;;;;;5035423;28;20204;-71
2021/04/29 09:53:05;;;;;;;8.02;6.50;;;14.10;99.90;;;;;;5034904;28;20223;-71
2021/04/29 09:55:34;;;;;;;8.93;7.47;;;14.00;99.90;;;;;;5035711;28;20505;-71
2021/04/29 09:58:09;;;;;;;10.02;7.82;;;13.90;99.90;;;;;;5035111;28;20333;-70
2021/04/29 10:00:37;;;;;;;8.68;6.80;;;13.80;99.90;;;;;;5035656;28;20298;-70
2021/04/29 10:03:04;;;;;;;11.15;8.00;;;13.70;99.90;;;;;;5035239;28;20247;-70
2021/04/29 10:05:35;;;;;;;10.20;7.20;;;13.70;99.90;;;;;;5035401;28;20210;-71
2021/04/29 10:08:03;;;;;;;8.77;7.47;;;14.20;99.90;;;;;;5034927;28;20222;-71
2021/04/29 10:10:32;;;;;;;7.95;6.55;;;16.20;99.90;;;;;;5034934;28;20303;-71
2021/04/29 10:13:00;;;;;;;8.90;7.80;;;18.30;99.90;;;;;;5034738;28;20225;-71
2021/04/29 10:15:31;;;;;;;11.80;6.57;;;20.00;99.90;;;;;;5035048;28;20458;-71
2021/04/29 10:17:57;;;;;;;7.30;6.67;;;21.50;97.00;;;;;;5034670;28;20927;-71
2021/04/29 10:20:24;;;;;;;6.77;5.90;;;22.00;94.20;;;;;;5035087;28;20443;-71
2021/04/29 10:22:51;;;;;;;6.80;6.10;;;21.90;93.30;;;;;;5034567;28;20517;-71
2021/04/29 10:25:31;;;;;;;8.07;6.27;;;21.40;88.00;;;;;;5034674;28;20543;-71
2021/04/29 10:27:58;;;;;;;8.43;6.87;;;20.60;88.20;;;;;;5034799;28;20499;-71
2021/04/29 10:30:36;;;;;;;6.35;5.57;;;19.70;91.10;;;;;;5034720;28;20918;-71
2021/04/29 10:33:15;;;;;;;7.68;6.75;;;19.30;93.20;;;;;;5034168;28;20228;-71
2021/04/29 10:35:55;;;;;;;8.52;6.70;;;18.80;95.50;;;;;;5034274;28;20620;-71
2021/04/29 10:38:28;;;;;;;6.95;6.25;;;18.40;94.00;;;;;;5034542;28;20306;-71
2021/04/29 10:40:56;;;;;;;8.38;6.10;;;18.50;94.70;;;;;;5034755;28;20266;-71
2021/04/29 10:43:31;;;;;;;8.10;6.25;;;18.30;94.10;;;;;;5034612;28;20311;-71
2021/04/29 10:46:01;;;;;;;8.80;7.80;;;18.20;94.60;;;;;;5034153;28;20290;-71
2021/04/29 10:48:27;;;;;;;10.02;7.00;;;18.00;94.60;;;;;;5034347;28;20204;-71
2021/04/29 10:51:03;;;;;;;7.70;6.32;;;17.70;92.70;;;;;;5034274;28;20211;-71
2021/04/29 10:53:30;;;;;;;6.45;5.82;;;17.60;94.10;;;;;;5034419;28;20234;-71
2021/04/29 10:56:02;;;;;;;7.80;6.30;;;17.50;93.40;;;;;;5034119;28;20299;-70
2021/04/29 10:58:28;;;;;;;7.47;5.88;;;17.50;94.20;;;;;;5033774;28;20713;-71
2021/04/29 11:01:01;;;;;;;6.57;5.88;;;17.60;95.10;;;;;;5033975;28;20649;-71
2021/04/29 11:03:30;;;;;;;5.72;5.13;;;18.00;95.50;;;;;;5033454;28;20654;-71
2021/04/29 11:06:08;;;;;;;7.97;6.07;;;18.50;95.70;;;;;;5033553;28;20214;-70
2021/04/29 11:08:36;;;;;;;9.20;6.32;;;18.60;94.70;;;;;;5034306;28;20579;-71
2021/04/29 11:11:03;;;;;;;7.20;6.15;;;18.60;92.90;;;;;;5033877;28;20290;-71
2021/04/29 11:13:29;;;;;;;6.90;6.07;;;18.40;92.60;;;;;;5034093;28;20314;-71
2021/04/29 11:15:58;;;;;;;5.35;4.85;;;17.80;91.80;;;;;;5033656;28;20212;-71
2021/04/29 11:18:25;;;;;;;8.18;5.60;;;17.00;91.80;;;;;;5034147;28;20221;-71
2021/04/29 11:20:54;;;;;;;6.60;5.25;;;15.90;91.90;;;;;;5033853;28;20217;-71
2021/04/29 11:23:26;;;;;;;6.45;5.00;;;15.30;93.60;;;;;;5033437;28;20228;-71
2021/04/29 11:26:03;;;;;;;5.68;4.63;;;14.90;94.40;;;;;;5033706;28;20204;-71
2021/04/29 11:28:29;;;;;;;6.65;4.75;;;14.70;94.50;;;;;;5033847;28;20300;-71
2021/04/29 11:30:55;;;;;;;6.35;5.07;;;14.50;94.20;;;;;;5033854;28;20208;-71
2021/04/29 11:33:32;;;;;;;5.57;4.25;;;14.50;94.90;;;;;;5033208;28;20324;-71
2021/04/29 11:35:59;;;;;;;6.00;4.97;;;14.70;95.50;;;;;;5033474;28;20200;-71
2021/04/29 11:38:25;;;;;;;6.30;2.80;;;14.90;94.20;;;;;;5033651;28;20319;-70
2021/04/29 11:40:51;;;;;;;7.82;4.45;;;14.80;93.30;;;;;;5033597;28;20219;-71
2021/04/29 11:43:18;;;;;;;5.80;3.95;;;14.90;93.70;;;;;;5033759;28;20306;-70
2021/04/29 11:45:45;;;;;;;5.25;3.83;;;14.90;92.70;;;;;;5033897;28;20242;-71
2021/04/29 11:48:13;;;;;;;4.40;3.88;;;14.70;92.50;;;;;;5033126;28;20211;-71
2021/04/29 11:50:43;;;;;;;5.95;4.20;;;14.80;92.70;;;;;;5033330;28;20200;-71
2021/04/29 11:53:11;;;;;;;5.53;4.25;;;14.80;93.10;;;;;;5033323;28;20314;-71
2021/04/29 11:55:40;;;;;;;4.95;3.88;;;15.00;93.00;;;;;;5033648;28;20205;-71
2021/04/29 11:58:10;;;;;;;6.63;3.92;;;15.10;93.10;;;;;;5033670;28;20315;-71
2021/04/29 12:00:38;;;;;;;4.78;3.90;;;15.20;93.00;;;;;;5033693;28;20658;-70
2021/04/29 12:03:07;;;;;;;4.30;3.90;;;15.00;91.60;;;;;;5033350;28;20615;-71
2021/04/29 12:05:38;;;;;;;8.50;3.92;;;14.90;92.70;;;;;;5033089;28;20204;-71
2021/04/29 12:08:10;;;;;;;6.88;4.07;;;14.90;93.30;;;;;;5033621;28;20240;-71
2021/04/29 12:10:48;;;;;;;4.20;3.80;;;15.00;92.30;;;;;;5033668;28;20295;-71
2021/04/29 12:13:16;;;;;;;4.80;4.35;;;15.30;94.10;;;;;;5033035;28;20224;-71
2021/04/29 12:15:42;;;;;;;4.25;3.40;;;15.60;92.00;;;;;;5034037;28;20217;-71
2021/04/29 12:18:13;;;;;;;4.95;3.67;;;15.80;91.40;;;;;;5036999;28;20577;-71
2021/04/29 12:20:40;;;;;;;5.47;3.90;;;16.00;91.30;;;;;;5037261;28;20207;-71
2021/04/29 12:23:10;;;;;;;5.22;4.43;;;15.90;88.90;;;;;;5036876;28;20388;-71
2021/04/29 12:25:36;;;;;;;7.43;3.95;;;15.70;90.10;;;;;;5037184;28;20305;-71
2021/04/29 12:28:16;;;;;;;4.05;3.60;;;15.70;90.50;;;;;;5036891;28;20283;-71
2021/04/29 12:30:42;;;;;;;4.93;3.35;;;16.00;90.50;;;;;;5037032;28;20296;-70
2021/04/29 12:33:19;;;;;;;4.35;3.95;;;15.80;86.90;;;;;;5036470;28;20321;-71
2021/04/29 12:35:46;;;;;;;5.53;4.10;;;15.60;89.40;;;;;;5037127;28;20633;-70
2021/04/29 12:38:14;;;;;;;4.15;3.50;;;15.40;90.10;;;;;;5036313;28;20240;-71
2021/04/29 12:40:41;;;;;;;5.15;4.05;;;15.50;91.40;;;;;;5036682;28;20213;-71
2021/04/29 12:43:09;;;;;;;4.75;3.83;;;15.40;91.10;;;;;;5036446;28;20825;-70
2021/04/29 12:45:44;;;;;;;4.65;3.95;;;15.40;90.50;;;;;;5036766;28;20210;-70
2021/04/29 12:48:11;;;;;;;6.32;4.00;;;15.50;90.60;;;;;;5036332;28;20688;-71